sensor_id;sensor_type;location;lat;lon;timestamp;P1;durP1;ratioP1;P2;durP2;ratioP2
14903;SDS011;7543;53.148;8.234;2024-01-30T00:01:32;12.33;;;7.27;;
14903;SDS011;7543;53.148;8.234;2024-01-30T00:04:01;15.57;;;7.97;;
14903;SDS011;7543;53.148;8.234;2024-01-30T00:06:29;13.93;;;7.40;;
14903;SDS011;7543;53.148;8.234;2024-01-30T00:08:58;14.10;;;8.17;;
14903;SDS011;7543;53.148;8.234;2024-01-30T00:11:26;11.80;;;7.30;;
14903;SDS011;7543;53.148;8.234;2024-01-30T00:13:56;12.83;;;7.37;;
14903;SDS011;7543;53.148;8.234;2024-01-30T00:16:25;11.17;;;6.97;;
14903;SDS011;7543;53.148;8.234;2024-01-30T00:18:53;12.43;;;7.27;;
14903;SDS011;7543;53.148;8.234;2024-01-30T00:21:22;11.43;;;7.00;;
14903;SDS011;7543;53.148;8.234;2024-01-30T00:23:51;16.70;;;7.87;;
14903;SDS011;7543;53.148;8.234;2024-01-30T00:26:19;14.33;;;7.60;;
14903;SDS011;7543;53.148;8.234;2024-01-30T00:28:47;12.17;;;7.57;;
14903;SDS011;7543;53.148;8.234;2024-01-30T00:31:17;13.40;;;7.37;;
14903;SDS011;7543;53.148;8.234;2024-01-30T00:33:46;12.33;;;7.77;;
14903;SDS011;7543;53.148;8.234;2024-01-30T00:36:14;14.10;;;8.00;;
14903;SDS011;7543;53.148;8.234;2024-01-30T00:38:42;11.80;;;6.97;;
14903;SDS011;7543;53.148;8.234;2024-01-30T00:41:11;13.13;;;7.73;;
14903;SDS011;7543;53.148;8.234;2024-01-30T00:43:39;12.37;;;7.63;;
14903;SDS011;7543;53.148;8.234;2024-01-30T00:46:07;16.37;;;8.17;;
14903;SDS011;7543;53.148;8.234;2024-01-30T00:48:37;12.37;;;7.17;;
14903;SDS011;7543;53.148;8.234;2024-01-30T00:51:05;14.73;;;8.07;;
14903;SDS011;7543;53.148;8.234;2024-01-30T00:53:34;14.43;;;7.90;;
14903;SDS011;7543;53.148;8.234;2024-01-30T00:56:02;13.33;;;8.00;;
14903;SDS011;7543;53.148;8.234;2024-01-30T00:58:31;11.77;;;6.93;;
14903;SDS011;7543;53.148;8.234;2024-01-30T01:00:59;11.67;;;6.83;;
14903;SDS011;7543;53.148;8.234;2024-01-30T01:03:28;13.33;;;7.00;;
14903;SDS011;7543;53.148;8.234;2024-01-30T01:05:57;13.63;;;7.87;;
14903;SDS011;7543;53.148;8.234;2024-01-30T01:08:26;12.47;;;7.83;;
14903;SDS011;7543;53.148;8.234;2024-01-30T01:10:54;12.40;;;7.53;;
14903;SDS011;7543;53.148;8.234;2024-01-30T01:13:22;15.50;;;7.73;;
14903;SDS011;7543;53.148;8.234;2024-01-30T01:15:51;17.97;;;7.07;;
14903;SDS011;7543;53.148;8.234;2024-01-30T01:18:19;11.40;;;7.43;;
14903;SDS011;7543;53.148;8.234;2024-01-30T01:20:47;11.93;;;7.43;;
14903;SDS011;7543;53.148;8.234;2024-01-30T01:23:17;15.03;;;7.73;;
14903;SDS011;7543;53.148;8.234;2024-01-30T01:25:45;13.17;;;7.30;;
14903;SDS011;7543;53.148;8.234;2024-01-30T01:28:14;13.33;;;7.37;;
14903;SDS011;7543;53.148;8.234;2024-01-30T01:30:42;13.17;;;7.57;;
14903;SDS011;7543;53.148;8.234;2024-01-30T01:33:10;13.03;;;7.80;;
14903;SDS011;7543;53.148;8.234;2024-01-30T01:35:41;16.60;;;7.87;;
14903;SDS011;7543;53.148;8.234;2024-01-30T01:38:09;13.13;;;7.70;;
14903;SDS011;7543;53.148;8.234;2024-01-30T01:40:38;10.97;;;6.90;;
14903;SDS011;7543;53.148;8.234;2024-01-30T01:43:07;12.90;;;7.30;;
14903;SDS011;7543;53.148;8.234;2024-01-30T01:45:36;12.10;;;7.00;;
14903;SDS011;7543;53.148;8.234;2024-01-30T01:48:04;15.73;;;7.60;;
14903;SDS011;7543;53.148;8.234;2024-01-30T01:50:33;16.83;;;7.23;;
14903;SDS011;7543;53.148;8.234;2024-01-30T01:53:01;11.87;;;7.37;;
14903;SDS011;7543;53.148;8.234;2024-01-30T01:55:31;14.27;;;7.53;;
14903;SDS011;7543;53.148;8.234;2024-01-30T01:58:01;11.97;;;6.80;;
14903;SDS011;7543;53.148;8.234;2024-01-30T02:00:29;11.13;;;6.70;;
14903;SDS011;7543;53.148;8.234;2024-01-30T02:02:58;14.50;;;7.77;;
14903;SDS011;7543;53.148;8.234;2024-01-30T02:05:27;12.87;;;7.43;;
14903;SDS011;7543;53.148;8.234;2024-01-30T02:07:55;14.63;;;7.70;;
14903;SDS011;7543;53.148;8.234;2024-01-30T02:10:24;11.53;;;7.57;;
14903;SDS011;7543;53.148;8.234;2024-01-30T02:12:52;13.10;;;6.93;;
14903;SDS011;7543;53.148;8.234;2024-01-30T02:15:22;13.57;;;7.67;;
14903;SDS011;7543;53.148;8.234;2024-01-30T02:17:50;13.27;;;7.30;;
14903;SDS011;7543;53.148;8.234;2024-01-30T02:20:19;13.50;;;7.57;;
14903;SDS011;7543;53.148;8.234;2024-01-30T02:22:48;10.77;;;7.67;;
14903;SDS011;7543;53.148;8.234;2024-01-30T02:25:17;13.70;;;6.63;;
14903;SDS011;7543;53.148;8.234;2024-01-30T02:27:45;11.47;;;7.13;;
14903;SDS011;7543;53.148;8.234;2024-01-30T02:30:13;15.07;;;7.57;;
14903;SDS011;7543;53.148;8.234;2024-01-30T02:32:42;9.83;;;6.40;;
14903;SDS011;7543;53.148;8.234;2024-01-30T02:35:10;11.53;;;7.03;;
14903;SDS011;7543;53.148;8.234;2024-01-30T02:37:38;11.77;;;7.43;;
14903;SDS011;7543;53.148;8.234;2024-01-30T02:40:08;11.80;;;7.10;;
14903;SDS011;7543;53.148;8.234;2024-01-30T02:42:37;14.17;;;7.47;;
14903;SDS011;7543;53.148;8.234;2024-01-30T02:45:05;12.33;;;7.17;;
14903;SDS011;7543;53.148;8.234;2024-01-30T02:47:34;15.40;;;7.57;;
14903;SDS011;7543;53.148;8.234;2024-01-30T02:50:03;12.83;;;7.10;;
14903;SDS011;7543;53.148;8.234;2024-01-30T02:52:31;12.77;;;7.73;;
14903;SDS011;7543;53.148;8.234;2024-01-30T02:55:00;18.40;;;7.93;;
14903;SDS011;7543;53.148;8.234;2024-01-30T02:57:30;11.87;;;7.30;;
14903;SDS011;7543;53.148;8.234;2024-01-30T02:59:58;14.23;;;7.20;;
14903;SDS011;7543;53.148;8.234;2024-01-30T03:02:27;12.93;;;6.97;;
14903;SDS011;7543;53.148;8.234;2024-01-30T03:04:55;11.97;;;6.77;;
14903;SDS011;7543;53.148;8.234;2024-01-30T03:07:23;20.10;;;6.93;;
14903;SDS011;7543;53.148;8.234;2024-01-30T03:09:51;12.27;;;7.83;;
14903;SDS011;7543;53.148;8.234;2024-01-30T03:12:22;13.03;;;7.67;;
14903;SDS011;7543;53.148;8.234;2024-01-30T03:14:52;13.93;;;7.13;;
14903;SDS011;7543;53.148;8.234;2024-01-30T03:17:20;11.73;;;7.07;;
14903;SDS011;7543;53.148;8.234;2024-01-30T03:19:48;13.80;;;7.53;;
14903;SDS011;7543;53.148;8.234;2024-01-30T03:22:17;12.60;;;7.33;;
14903;SDS011;7543;53.148;8.234;2024-01-30T03:24:45;12.03;;;7.27;;
14903;SDS011;7543;53.148;8.234;2024-01-30T03:27:13;14.27;;;7.03;;
14903;SDS011;7543;53.148;8.234;2024-01-30T03:29:42;11.27;;;7.37;;
14903;SDS011;7543;53.148;8.234;2024-01-30T03:32:11;13.40;;;7.60;;
14903;SDS011;7543;53.148;8.234;2024-01-30T03:34:40;10.43;;;6.93;;
14903;SDS011;7543;53.148;8.234;2024-01-30T03:37:08;12.80;;;7.37;;
14903;SDS011;7543;53.148;8.234;2024-01-30T03:39:36;11.27;;;7.40;;
14903;SDS011;7543;53.148;8.234;2024-01-30T03:42:05;16.13;;;7.73;;
14903;SDS011;7543;53.148;8.234;2024-01-30T03:44:33;14.93;;;7.53;;
14903;SDS011;7543;53.148;8.234;2024-01-30T03:47:01;12.17;;;7.30;;
14903;SDS011;7543;53.148;8.234;2024-01-30T03:49:31;13.67;;;7.70;;
14903;SDS011;7543;53.148;8.234;2024-01-30T03:51:59;12.53;;;7.33;;
14903;SDS011;7543;53.148;8.234;2024-01-30T03:54:28;11.77;;;6.77;;
14903;SDS011;7543;53.148;8.234;2024-01-30T03:56:56;10.47;;;7.20;;
14903;SDS011;7543;53.148;8.234;2024-01-30T03:59:24;12.00;;;7.10;;
14903;SDS011;7543;53.148;8.234;2024-01-30T04:01:53;13.60;;;7.30;;
14903;SDS011;7543;53.148;8.234;2024-01-30T04:04:21;13.17;;;7.20;;
14903;SDS011;7543;53.148;8.234;2024-01-30T04:06:51;14.93;;;7.43;;
14903;SDS011;7543;53.148;8.234;2024-01-30T04:09:19;12.57;;;7.03;;
14903;SDS011;7543;53.148;8.234;2024-01-30T04:11:47;12.80;;;7.20;;
14903;SDS011;7543;53.148;8.234;2024-01-30T04:14:16;12.53;;;7.60;;
14903;SDS011;7543;53.148;8.234;2024-01-30T04:16:44;12.97;;;7.33;;
14903;SDS011;7543;53.148;8.234;2024-01-30T04:19:12;13.50;;;7.00;;
14903;SDS011;7543;53.148;8.234;2024-01-30T04:21:41;14.80;;;7.00;;
14903;SDS011;7543;53.148;8.234;2024-01-30T04:24:10;12.63;;;7.27;;
14903;SDS011;7543;53.148;8.234;2024-01-30T04:26:39;11.47;;;7.43;;
14903;SDS011;7543;53.148;8.234;2024-01-30T04:29:07;9.50;;;6.37;;
14903;SDS011;7543;53.148;8.234;2024-01-30T04:31:36;12.60;;;7.17;;
14903;SDS011;7543;53.148;8.234;2024-01-30T04:34:04;14.17;;;6.83;;
14903;SDS011;7543;53.148;8.234;2024-01-30T04:36:32;12.77;;;6.70;;
14903;SDS011;7543;53.148;8.234;2024-01-30T04:39:01;10.93;;;7.07;;
14903;SDS011;7543;53.148;8.234;2024-01-30T04:41:30;12.07;;;6.90;;
14903;SDS011;7543;53.148;8.234;2024-01-30T04:43:59;12.17;;;7.83;;
14903;SDS011;7543;53.148;8.234;2024-01-30T04:46:27;13.53;;;7.57;;
14903;SDS011;7543;53.148;8.234;2024-01-30T04:48:55;11.23;;;7.00;;
14903;SDS011;7543;53.148;8.234;2024-01-30T04:51:24;12.93;;;7.70;;
14903;SDS011;7543;53.148;8.234;2024-01-30T04:53:52;13.50;;;7.53;;
14903;SDS011;7543;53.148;8.234;2024-01-30T04:56:20;11.27;;;6.70;;
14903;SDS011;7543;53.148;8.234;2024-01-30T04:58:50;10.80;;;7.00;;
14903;SDS011;7543;53.148;8.234;2024-01-30T05:01:17;17.57;;;7.27;;
14903;SDS011;7543;53.148;8.234;2024-01-30T05:03:46;13.70;;;7.60;;
14903;SDS011;7543;53.148;8.234;2024-01-30T05:06:23;11.90;;;7.20;;
14903;SDS011;7543;53.148;8.234;2024-01-30T05:08:52;9.70;;;6.87;;
14903;SDS011;7543;53.148;8.234;2024-01-30T05:11:20;13.10;;;7.13;;
14903;SDS011;7543;53.148;8.234;2024-01-30T05:13:50;11.27;;;6.70;;
14903;SDS011;7543;53.148;8.234;2024-01-30T05:16:18;10.50;;;6.77;;
14903;SDS011;7543;53.148;8.234;2024-01-30T05:18:46;10.10;;;6.70;;
14903;SDS011;7543;53.148;8.234;2024-01-30T05:21:15;13.27;;;7.07;;
14903;SDS011;7543;53.148;8.234;2024-01-30T05:23:43;13.30;;;7.77;;
14903;SDS011;7543;53.148;8.234;2024-01-30T05:26:11;11.67;;;7.30;;
14903;SDS011;7543;53.148;8.234;2024-01-30T05:28:39;13.73;;;7.50;;
14903;SDS011;7543;53.148;8.234;2024-01-30T05:31:09;11.57;;;6.97;;
14903;SDS011;7543;53.148;8.234;2024-01-30T05:33:38;13.43;;;7.03;;
14903;SDS011;7543;53.148;8.234;2024-01-30T05:36:06;9.90;;;6.60;;
14903;SDS011;7543;53.148;8.234;2024-01-30T05:38:35;11.80;;;6.90;;
14903;SDS011;7543;53.148;8.234;2024-01-30T05:41:03;11.93;;;7.00;;
14903;SDS011;7543;53.148;8.234;2024-01-30T05:43:32;10.97;;;6.47;;
14903;SDS011;7543;53.148;8.234;2024-01-30T05:46:00;13.17;;;7.33;;
14903;SDS011;7543;53.148;8.234;2024-01-30T05:48:29;11.17;;;6.90;;
14903;SDS011;7543;53.148;8.234;2024-01-30T05:50:58;12.73;;;7.50;;
14903;SDS011;7543;53.148;8.234;2024-01-30T05:53:27;13.03;;;7.23;;
14903;SDS011;7543;53.148;8.234;2024-01-30T05:55:55;10.80;;;6.53;;
14903;SDS011;7543;53.148;8.234;2024-01-30T05:58:24;12.33;;;7.63;;
14903;SDS011;7543;53.148;8.234;2024-01-30T06:00:52;10.67;;;6.67;;
14903;SDS011;7543;53.148;8.234;2024-01-30T06:03:20;13.67;;;7.10;;
14903;SDS011;7543;53.148;8.234;2024-01-30T06:05:50;10.80;;;7.17;;
14903;SDS011;7543;53.148;8.234;2024-01-30T06:08:18;13.87;;;7.30;;
14903;SDS011;7543;53.148;8.234;2024-01-30T06:10:47;12.23;;;7.17;;
14903;SDS011;7543;53.148;8.234;2024-01-30T06:13:15;11.90;;;7.33;;
14903;SDS011;7543;53.148;8.234;2024-01-30T06:15:44;14.13;;;7.47;;
14903;SDS011;7543;53.148;8.234;2024-01-30T06:18:12;12.20;;;6.90;;
14903;SDS011;7543;53.148;8.234;2024-01-30T06:20:40;10.83;;;6.83;;
14903;SDS011;7543;53.148;8.234;2024-01-30T06:23:10;10.70;;;6.40;;
14903;SDS011;7543;53.148;8.234;2024-01-30T06:25:39;11.87;;;7.13;;
14903;SDS011;7543;53.148;8.234;2024-01-30T06:28:08;10.60;;;6.73;;
14903;SDS011;7543;53.148;8.234;2024-01-30T06:30:36;12.37;;;7.27;;
14903;SDS011;7543;53.148;8.234;2024-01-30T06:33:05;15.57;;;7.37;;
14903;SDS011;7543;53.148;8.234;2024-01-30T06:35:33;11.43;;;7.47;;
14903;SDS011;7543;53.148;8.234;2024-01-30T06:38:03;13.73;;;7.93;;
14903;SDS011;7543;53.148;8.234;2024-01-30T06:40:32;11.80;;;6.83;;
14903;SDS011;7543;53.148;8.234;2024-01-30T06:43:01;11.77;;;7.17;;
14903;SDS011;7543;53.148;8.234;2024-01-30T06:45:29;13.37;;;7.03;;
14903;SDS011;7543;53.148;8.234;2024-01-30T06:47:57;13.27;;;7.77;;
14903;SDS011;7543;53.148;8.234;2024-01-30T06:50:26;10.07;;;7.07;;
14903;SDS011;7543;53.148;8.234;2024-01-30T06:52:59;12.30;;;7.30;;
14903;SDS011;7543;53.148;8.234;2024-01-30T06:55:27;10.40;;;6.53;;
14903;SDS011;7543;53.148;8.234;2024-01-30T06:57:57;16.20;;;7.30;;
14903;SDS011;7543;53.148;8.234;2024-01-30T07:00:25;11.23;;;7.03;;
14903;SDS011;7543;53.148;8.234;2024-01-30T07:02:54;9.47;;;6.70;;
14903;SDS011;7543;53.148;8.234;2024-01-30T07:05:22;12.23;;;6.83;;
14903;SDS011;7543;53.148;8.234;2024-01-30T07:07:50;15.30;;;8.03;;
14903;SDS011;7543;53.148;8.234;2024-01-30T07:10:19;12.57;;;7.50;;
14903;SDS011;7543;53.148;8.234;2024-01-30T07:12:47;15.13;;;7.43;;
14903;SDS011;7543;53.148;8.234;2024-01-30T07:15:17;10.87;;;6.90;;
14903;SDS011;7543;53.148;8.234;2024-01-30T07:17:47;14.67;;;7.47;;
14903;SDS011;7543;53.148;8.234;2024-01-30T07:20:15;12.50;;;7.13;;
14903;SDS011;7543;53.148;8.234;2024-01-30T07:22:46;16.23;;;7.47;;
14903;SDS011;7543;53.148;8.234;2024-01-30T07:25:15;12.70;;;7.63;;
14903;SDS011;7543;53.148;8.234;2024-01-30T07:27:44;12.47;;;7.87;;
14903;SDS011;7543;53.148;8.234;2024-01-30T07:30:12;13.63;;;7.47;;
14903;SDS011;7543;53.148;8.234;2024-01-30T07:32:43;11.23;;;6.93;;
14903;SDS011;7543;53.148;8.234;2024-01-30T07:35:13;12.70;;;7.60;;
14903;SDS011;7543;53.148;8.234;2024-01-30T07:37:41;10.07;;;7.07;;
14903;SDS011;7543;53.148;8.234;2024-01-30T07:40:10;10.80;;;6.67;;
14903;SDS011;7543;53.148;8.234;2024-01-30T07:42:38;11.07;;;6.97;;
14903;SDS011;7543;53.148;8.234;2024-01-30T07:45:07;16.57;;;6.77;;
14903;SDS011;7543;53.148;8.234;2024-01-30T07:47:35;10.07;;;6.30;;
14903;SDS011;7543;53.148;8.234;2024-01-30T07:50:06;11.97;;;7.17;;
14903;SDS011;7543;53.148;8.234;2024-01-30T07:52:36;14.03;;;7.20;;
14903;SDS011;7543;53.148;8.234;2024-01-30T07:55:04;11.40;;;7.13;;
14903;SDS011;7543;53.148;8.234;2024-01-30T07:57:34;14.23;;;6.43;;
14903;SDS011;7543;53.148;8.234;2024-01-30T08:00:03;10.23;;;6.63;;
14903;SDS011;7543;53.148;8.234;2024-01-30T08:02:35;12.23;;;6.60;;
14903;SDS011;7543;53.148;8.234;2024-01-30T08:05:03;11.07;;;6.83;;
14903;SDS011;7543;53.148;8.234;2024-01-30T08:07:33;11.80;;;6.93;;
14903;SDS011;7543;53.148;8.234;2024-01-30T08:10:02;10.00;;;6.67;;
14903;SDS011;7543;53.148;8.234;2024-01-30T08:12:30;12.73;;;7.30;;
14903;SDS011;7543;53.148;8.234;2024-01-30T08:14:59;11.97;;;7.03;;
14903;SDS011;7543;53.148;8.234;2024-01-30T08:17:27;11.20;;;6.80;;
14903;SDS011;7543;53.148;8.234;2024-01-30T08:19:55;11.70;;;6.53;;
14903;SDS011;7543;53.148;8.234;2024-01-30T08:22:25;11.87;;;6.83;;
14903;SDS011;7543;53.148;8.234;2024-01-30T08:24:53;9.50;;;6.07;;
14903;SDS011;7543;53.148;8.234;2024-01-30T08:27:22;14.07;;;6.90;;
14903;SDS011;7543;53.148;8.234;2024-01-30T08:29:50;10.03;;;6.53;;
14903;SDS011;7543;53.148;8.234;2024-01-30T08:32:18;10.90;;;6.07;;
14903;SDS011;7543;53.148;8.234;2024-01-30T08:34:47;10.07;;;6.77;;
14903;SDS011;7543;53.148;8.234;2024-01-30T08:37:15;11.47;;;6.37;;
14903;SDS011;7543;53.148;8.234;2024-01-30T08:39:45;12.30;;;6.90;;
14903;SDS011;7543;53.148;8.234;2024-01-30T08:42:13;14.50;;;7.90;;
14903;SDS011;7543;53.148;8.234;2024-01-30T08:44:41;15.57;;;6.87;;
14903;SDS011;7543;53.148;8.234;2024-01-30T08:47:10;15.23;;;7.00;;
14903;SDS011;7543;53.148;8.234;2024-01-30T08:49:38;11.43;;;6.13;;
14903;SDS011;7543;53.148;8.234;2024-01-30T08:52:06;11.07;;;6.63;;
14903;SDS011;7543;53.148;8.234;2024-01-30T08:54:34;13.40;;;6.63;;
14903;SDS011;7543;53.148;8.234;2024-01-30T08:57:04;12.63;;;6.80;;
14903;SDS011;7543;53.148;8.234;2024-01-30T08:59:33;10.83;;;6.60;;
14903;SDS011;7543;53.148;8.234;2024-01-30T09:02:01;10.37;;;6.10;;
14903;SDS011;7543;53.148;8.234;2024-01-30T09:04:31;10.80;;;6.17;;
14903;SDS011;7543;53.148;8.234;2024-01-30T09:06:59;9.70;;;6.10;;
14903;SDS011;7543;53.148;8.234;2024-01-30T09:09:27;9.47;;;6.33;;
14903;SDS011;7543;53.148;8.234;2024-01-30T09:11:56;10.70;;;6.50;;
14903;SDS011;7543;53.148;8.234;2024-01-30T09:14:30;11.97;;;5.87;;
14903;SDS011;7543;53.148;8.234;2024-01-30T09:16:58;10.57;;;6.27;;
14903;SDS011;7543;53.148;8.234;2024-01-30T09:19:26;10.87;;;6.10;;
14903;SDS011;7543;53.148;8.234;2024-01-30T09:21:55;9.33;;;6.00;;
14903;SDS011;7543;53.148;8.234;2024-01-30T09:24:23;9.83;;;6.17;;
14903;SDS011;7543;53.148;8.234;2024-01-30T09:26:51;10.27;;;5.83;;
14903;SDS011;7543;53.148;8.234;2024-01-30T09:29:20;10.37;;;5.17;;
14903;SDS011;7543;53.148;8.234;2024-01-30T09:31:50;10.03;;;5.90;;
14903;SDS011;7543;53.148;8.234;2024-01-30T09:34:18;10.37;;;5.40;;
14903;SDS011;7543;53.148;8.234;2024-01-30T09:36:47;8.97;;;5.50;;
14903;SDS011;7543;53.148;8.234;2024-01-30T09:39:15;9.67;;;5.97;;
14903;SDS011;7543;53.148;8.234;2024-01-30T09:41:45;10.93;;;5.63;;
14903;SDS011;7543;53.148;8.234;2024-01-30T09:44:16;7.93;;;5.27;;
14903;SDS011;7543;53.148;8.234;2024-01-30T09:46:45;10.80;;;5.80;;
14903;SDS011;7543;53.148;8.234;2024-01-30T09:49:16;11.23;;;6.13;;
14903;SDS011;7543;53.148;8.234;2024-01-30T09:51:45;13.27;;;5.40;;
14903;SDS011;7543;53.148;8.234;2024-01-30T09:54:14;10.90;;;5.90;;
14903;SDS011;7543;53.148;8.234;2024-01-30T09:56:42;10.90;;;6.13;;
14903;SDS011;7543;53.148;8.234;2024-01-30T09:59:11;13.13;;;6.50;;
14903;SDS011;7543;53.148;8.234;2024-01-30T10:01:39;13.60;;;5.47;;
14903;SDS011;7543;53.148;8.234;2024-01-30T10:04:08;10.47;;;6.20;;
14903;SDS011;7543;53.148;8.234;2024-01-30T10:06:38;9.63;;;5.63;;
14903;SDS011;7543;53.148;8.234;2024-01-30T10:09:08;8.67;;;5.47;;
14903;SDS011;7543;53.148;8.234;2024-01-30T10:11:37;9.77;;;5.73;;
14903;SDS011;7543;53.148;8.234;2024-01-30T10:14:05;10.63;;;5.73;;
14903;SDS011;7543;53.148;8.234;2024-01-30T10:16:34;9.43;;;5.57;;
14903;SDS011;7543;53.148;8.234;2024-01-30T10:19:02;8.47;;;5.60;;
14903;SDS011;7543;53.148;8.234;2024-01-30T10:21:31;9.93;;;5.10;;
14903;SDS011;7543;53.148;8.234;2024-01-30T10:24:00;11.97;;;5.93;;
14903;SDS011;7543;53.148;8.234;2024-01-30T10:26:29;10.50;;;5.53;;
14903;SDS011;7543;53.148;8.234;2024-01-30T10:29:00;10.17;;;6.13;;
14903;SDS011;7543;53.148;8.234;2024-01-30T10:31:29;8.83;;;5.03;;
14903;SDS011;7543;53.148;8.234;2024-01-30T10:33:57;12.50;;;6.00;;
14903;SDS011;7543;53.148;8.234;2024-01-30T10:36:28;6.80;;;4.87;;
14903;SDS011;7543;53.148;8.234;2024-01-30T10:38:58;11.10;;;5.30;;
14903;SDS011;7543;53.148;8.234;2024-01-30T10:41:30;11.43;;;5.60;;
14903;SDS011;7543;53.148;8.234;2024-01-30T10:44:02;10.23;;;6.00;;
14903;SDS011;7543;53.148;8.234;2024-01-30T10:46:33;9.30;;;5.23;;
14903;SDS011;7543;53.148;8.234;2024-01-30T10:49:03;10.03;;;5.30;;
14903;SDS011;7543;53.148;8.234;2024-01-30T10:51:32;7.77;;;5.10;;
14903;SDS011;7543;53.148;8.234;2024-01-30T10:54:04;9.73;;;5.60;;
14903;SDS011;7543;53.148;8.234;2024-01-30T10:56:33;11.37;;;5.80;;
14903;SDS011;7543;53.148;8.234;2024-01-30T10:59:01;9.17;;;5.27;;
14903;SDS011;7543;53.148;8.234;2024-01-30T11:01:30;7.60;;;5.00;;
14903;SDS011;7543;53.148;8.234;2024-01-30T11:03:59;9.33;;;5.20;;
14903;SDS011;7543;53.148;8.234;2024-01-30T11:06:27;9.40;;;5.60;;
14903;SDS011;7543;53.148;8.234;2024-01-30T11:09:03;10.30;;;5.70;;
14903;SDS011;7543;53.148;8.234;2024-01-30T11:11:47;9.20;;;5.07;;
14903;SDS011;7543;53.148;8.234;2024-01-30T11:14:16;10.93;;;5.70;;
14903;SDS011;7543;53.148;8.234;2024-01-30T11:16:50;12.30;;;5.87;;
14903;SDS011;7543;53.148;8.234;2024-01-30T11:19:30;8.13;;;5.50;;
14903;SDS011;7543;53.148;8.234;2024-01-30T11:21:59;10.93;;;5.30;;
14903;SDS011;7543;53.148;8.234;2024-01-30T11:24:29;9.30;;;5.23;;
14903;SDS011;7543;53.148;8.234;2024-01-30T11:26:57;10.03;;;5.53;;
14903;SDS011;7543;53.148;8.234;2024-01-30T11:29:26;6.77;;;4.87;;
14903;SDS011;7543;53.148;8.234;2024-01-30T11:31:56;9.33;;;5.20;;
14903;SDS011;7543;53.148;8.234;2024-01-30T11:34:25;10.60;;;5.20;;
14903;SDS011;7543;53.148;8.234;2024-01-30T11:36:55;10.07;;;5.37;;
14903;SDS011;7543;53.148;8.234;2024-01-30T11:39:25;9.63;;;5.50;;
14903;SDS011;7543;53.148;8.234;2024-01-30T11:41:55;7.93;;;5.30;;
14903;SDS011;7543;53.148;8.234;2024-01-30T11:44:24;8.07;;;5.17;;
14903;SDS011;7543;53.148;8.234;2024-01-30T11:46:53;14.70;;;5.20;;
14903;SDS011;7543;53.148;8.234;2024-01-30T11:49:21;9.63;;;5.07;;
14903;SDS011;7543;53.148;8.234;2024-01-30T11:51:49;7.90;;;4.87;;
14903;SDS011;7543;53.148;8.234;2024-01-30T11:54:18;11.77;;;5.17;;
14903;SDS011;7543;53.148;8.234;2024-01-30T11:56:47;8.57;;;4.80;;
14903;SDS011;7543;53.148;8.234;2024-01-30T11:59:16;10.23;;;5.47;;
14903;SDS011;7543;53.148;8.234;2024-01-30T12:01:45;8.17;;;5.17;;
14903;SDS011;7543;53.148;8.234;2024-01-30T12:04:13;10.23;;;4.93;;
14903;SDS011;7543;53.148;8.234;2024-01-30T12:06:42;8.70;;;5.43;;
14903;SDS011;7543;53.148;8.234;2024-01-30T12:09:11;9.87;;;5.30;;
14903;SDS011;7543;53.148;8.234;2024-01-30T12:11:43;11.33;;;5.37;;
14903;SDS011;7543;53.148;8.234;2024-01-30T12:14:12;11.90;;;5.63;;
14903;SDS011;7543;53.148;8.234;2024-01-30T12:16:42;9.77;;;4.93;;
14903;SDS011;7543;53.148;8.234;2024-01-30T12:19:10;14.33;;;5.93;;
14903;SDS011;7543;53.148;8.234;2024-01-30T12:21:39;12.70;;;5.93;;
14903;SDS011;7543;53.148;8.234;2024-01-30T12:24:07;9.33;;;5.57;;
14903;SDS011;7543;53.148;8.234;2024-01-30T12:26:35;7.40;;;4.97;;
14903;SDS011;7543;53.148;8.234;2024-01-30T12:29:04;10.90;;;5.67;;
14903;SDS011;7543;53.148;8.234;2024-01-30T12:31:32;10.53;;;5.60;;
14903;SDS011;7543;53.148;8.234;2024-01-30T12:34:02;13.67;;;5.37;;
14903;SDS011;7543;53.148;8.234;2024-01-30T12:36:30;10.73;;;4.90;;
14903;SDS011;7543;53.148;8.234;2024-01-30T12:38:58;8.50;;;4.80;;
14903;SDS011;7543;53.148;8.234;2024-01-30T12:41:27;12.50;;;5.53;;
14903;SDS011;7543;53.148;8.234;2024-01-30T12:43:57;8.67;;;4.87;;
14903;SDS011;7543;53.148;8.234;2024-01-30T12:46:27;8.17;;;4.97;;
14903;SDS011;7543;53.148;8.234;2024-01-30T12:48:56;11.83;;;5.50;;
14903;SDS011;7543;53.148;8.234;2024-01-30T12:51:26;10.37;;;5.50;;
14903;SDS011;7543;53.148;8.234;2024-01-30T12:53:54;12.73;;;5.63;;
14903;SDS011;7543;53.148;8.234;2024-01-30T12:56:22;11.33;;;5.50;;
14903;SDS011;7543;53.148;8.234;2024-01-30T12:58:51;8.63;;;5.43;;
14903;SDS011;7543;53.148;8.234;2024-01-30T13:01:19;8.77;;;5.37;;
14903;SDS011;7543;53.148;8.234;2024-01-30T13:03:47;11.43;;;5.20;;
14903;SDS011;7543;53.148;8.234;2024-01-30T13:06:16;6.77;;;4.53;;
14903;SDS011;7543;53.148;8.234;2024-01-30T13:08:46;12.87;;;5.57;;
14903;SDS011;7543;53.148;8.234;2024-01-30T13:11:14;9.57;;;4.67;;
14903;SDS011;7543;53.148;8.234;2024-01-30T13:13:43;10.53;;;4.83;;
14903;SDS011;7543;53.148;8.234;2024-01-30T13:16:11;12.77;;;4.80;;
14903;SDS011;7543;53.148;8.234;2024-01-30T13:18:39;15.80;;;5.40;;
14903;SDS011;7543;53.148;8.234;2024-01-30T13:21:08;9.37;;;5.17;;
14903;SDS011;7543;53.148;8.234;2024-01-30T13:23:36;11.13;;;5.90;;
14903;SDS011;7543;53.148;8.234;2024-01-30T13:26:06;6.60;;;4.80;;
14903;SDS011;7543;53.148;8.234;2024-01-30T13:28:34;9.17;;;5.50;;
14903;SDS011;7543;53.148;8.234;2024-01-30T13:31:03;10.80;;;5.50;;
14903;SDS011;7543;53.148;8.234;2024-01-30T13:33:32;12.27;;;4.87;;
14903;SDS011;7543;53.148;8.234;2024-01-30T13:36:00;9.90;;;5.53;;
14903;SDS011;7543;53.148;8.234;2024-01-30T13:38:28;9.07;;;5.33;;
14903;SDS011;7543;53.148;8.234;2024-01-30T13:40:57;8.93;;;5.13;;
14903;SDS011;7543;53.148;8.234;2024-01-30T13:43:26;8.27;;;4.97;;
14903;SDS011;7543;53.148;8.234;2024-01-30T13:45:55;9.93;;;5.33;;
14903;SDS011;7543;53.148;8.234;2024-01-30T13:48:23;11.33;;;5.60;;
14903;SDS011;7543;53.148;8.234;2024-01-30T13:50:51;11.27;;;5.43;;
14903;SDS011;7543;53.148;8.234;2024-01-30T13:53:20;7.57;;;5.20;;
14903;SDS011;7543;53.148;8.234;2024-01-30T13:55:49;7.57;;;4.90;;
14903;SDS011;7543;53.148;8.234;2024-01-30T13:58:17;9.87;;;4.90;;
14903;SDS011;7543;53.148;8.234;2024-01-30T14:00:47;9.30;;;5.07;;
14903;SDS011;7543;53.148;8.234;2024-01-30T14:03:16;7.43;;;5.23;;
14903;SDS011;7543;53.148;8.234;2024-01-30T14:05:44;11.53;;;5.17;;
14903;SDS011;7543;53.148;8.234;2024-01-30T14:08:12;12.43;;;5.67;;
14903;SDS011;7543;53.148;8.234;2024-01-30T14:10:41;7.70;;;5.10;;
14903;SDS011;7543;53.148;8.234;2024-01-30T14:13:09;8.10;;;5.03;;
14903;SDS011;7543;53.148;8.234;2024-01-30T14:15:38;9.37;;;5.43;;
14903;SDS011;7543;53.148;8.234;2024-01-30T14:18:08;9.20;;;4.70;;
14903;SDS011;7543;53.148;8.234;2024-01-30T14:20:37;10.13;;;5.20;;
14903;SDS011;7543;53.148;8.234;2024-01-30T14:23:06;8.00;;;4.13;;
14903;SDS011;7543;53.148;8.234;2024-01-30T14:25:34;9.07;;;5.03;;
14903;SDS011;7543;53.148;8.234;2024-01-30T14:28:03;10.93;;;4.97;;
14903;SDS011;7543;53.148;8.234;2024-01-30T14:30:31;15.97;;;5.50;;
14903;SDS011;7543;53.148;8.234;2024-01-30T14:33:00;8.27;;;4.70;;
14903;SDS011;7543;53.148;8.234;2024-01-30T14:35:29;8.53;;;4.90;;
14903;SDS011;7543;53.148;8.234;2024-01-30T14:37:58;9.03;;;5.07;;
14903;SDS011;7543;53.148;8.234;2024-01-30T14:40:26;12.97;;;5.27;;
14903;SDS011;7543;53.148;8.234;2024-01-30T14:42:54;7.27;;;4.83;;
14903;SDS011;7543;53.148;8.234;2024-01-30T14:45:23;7.43;;;5.03;;
14903;SDS011;7543;53.148;8.234;2024-01-30T14:47:51;7.53;;;4.87;;
14903;SDS011;7543;53.148;8.234;2024-01-30T14:50:19;7.90;;;5.00;;
14903;SDS011;7543;53.148;8.234;2024-01-30T14:52:49;9.40;;;5.07;;
14903;SDS011;7543;53.148;8.234;2024-01-30T14:55:17;11.13;;;5.13;;
14903;SDS011;7543;53.148;8.234;2024-01-30T14:57:46;13.60;;;5.87;;
14903;SDS011;7543;53.148;8.234;2024-01-30T15:00:16;7.77;;;5.10;;